sensor_id;sensor_type;location;lat;lon;timestamp;P1;durP1;ratioP1;P2;durP2;ratioP2
79064;SDS011;68469;51.502;7.462;2023-06-22T00:01:53;7.32;;;5.72;;
79064;SDS011;68469;51.502;7.462;2023-06-22T00:04:19;8.77;;;5.68;;
79064;SDS011;68469;51.502;7.462;2023-06-22T00:06:45;6.75;;;4.78;;
79064;SDS011;68469;51.502;7.462;2023-06-22T00:09:10;7.90;;;5.15;;
79064;SDS011;68469;51.502;7.462;2023-06-22T00:11:36;5.25;;;4.57;;
79064;SDS011;68469;51.502;7.462;2023-06-22T00:14:02;5.70;;;5.05;;
79064;SDS011;68469;51.502;7.462;2023-06-22T00:16:28;8.60;;;4.78;;
79064;SDS011;68469;51.502;7.462;2023-06-22T00:18:54;6.85;;;4.32;;
79064;SDS011;68469;51.502;7.462;2023-06-22T00:21:19;7.78;;;5.57;;
79064;SDS011;68469;51.502;7.462;2023-06-22T00:23:45;7.80;;;5.05;;
79064;SDS011;68469;51.502;7.462;2023-06-22T00:26:12;6.20;;;5.18;;
79064;SDS011;68469;51.502;7.462;2023-06-22T00:28:38;6.88;;;4.80;;
79064;SDS011;68469;51.502;7.462;2023-06-22T00:31:04;19.45;;;5.40;;
79064;SDS011;68469;51.502;7.462;2023-06-22T00:33:29;7.05;;;5.32;;
79064;SDS011;68469;51.502;7.462;2023-06-22T00:35:56;9.35;;;5.80;;
79064;SDS011;68469;51.502;7.462;2023-06-22T00:38:22;7.20;;;5.25;;
79064;SDS011;68469;51.502;7.462;2023-06-22T00:40:47;10.82;;;4.63;;
79064;SDS011;68469;51.502;7.462;2023-06-22T00:43:13;8.02;;;5.10;;
79064;SDS011;68469;51.502;7.462;2023-06-22T00:45:39;6.40;;;5.13;;
79064;SDS011;68469;51.502;7.462;2023-06-22T00:48:05;8.18;;;4.60;;
79064;SDS011;68469;51.502;7.462;2023-06-22T00:50:32;6.57;;;5.63;;
79064;SDS011;68469;51.502;7.462;2023-06-22T00:52:59;7.90;;;6.00;;
79064;SDS011;68469;51.502;7.462;2023-06-22T00:55:29;8.95;;;5.68;;
79064;SDS011;68469;51.502;7.462;2023-06-22T00:57:55;6.22;;;4.95;;
79064;SDS011;68469;51.502;7.462;2023-06-22T01:00:22;6.43;;;5.35;;
79064;SDS011;68469;51.502;7.462;2023-06-22T01:02:50;6.28;;;5.15;;
79064;SDS011;68469;51.502;7.462;2023-06-22T01:05:18;7.25;;;5.93;;
79064;SDS011;68469;51.502;7.462;2023-06-22T01:12:45;8.93;;;6.57;;
79064;SDS011;68469;51.502;7.462;2023-06-22T01:15:15;7.95;;;6.72;;
79064;SDS011;68469;51.502;7.462;2023-06-22T01:17:48;13.10;;;7.68;;
79064;SDS011;68469;51.502;7.462;2023-06-22T01:20:14;8.07;;;5.80;;
79064;SDS011;68469;51.502;7.462;2023-06-22T01:22:50;7.07;;;5.75;;
79064;SDS011;68469;51.502;7.462;2023-06-22T01:26:02;7.28;;;5.55;;
79064;SDS011;68469;51.502;7.462;2023-06-22T01:28:43;9.93;;;7.75;;
79064;SDS011;68469;51.502;7.462;2023-06-22T01:31:12;8.60;;;6.55;;
79064;SDS011;68469;51.502;7.462;2023-06-22T01:33:42;7.15;;;5.80;;
79064;SDS011;68469;51.502;7.462;2023-06-22T01:36:09;7.70;;;6.22;;
79064;SDS011;68469;51.502;7.462;2023-06-22T01:38:35;7.32;;;5.82;;
79064;SDS011;68469;51.502;7.462;2023-06-22T01:41:02;10.10;;;6.90;;
79064;SDS011;68469;51.502;7.462;2023-06-22T01:43:29;11.77;;;6.85;;
79064;SDS011;68469;51.502;7.462;2023-06-22T01:45:56;9.35;;;6.55;;
79064;SDS011;68469;51.502;7.462;2023-06-22T01:48:23;10.18;;;7.15;;
79064;SDS011;68469;51.502;7.462;2023-06-22T01:50:50;12.55;;;7.22;;
79064;SDS011;68469;51.502;7.462;2023-06-22T01:53:17;12.57;;;7.35;;
79064;SDS011;68469;51.502;7.462;2023-06-22T01:55:43;10.73;;;6.38;;
79064;SDS011;68469;51.502;7.462;2023-06-22T01:58:08;9.40;;;6.45;;
79064;SDS011;68469;51.502;7.462;2023-06-22T02:00:36;7.82;;;5.93;;
79064;SDS011;68469;51.502;7.462;2023-06-22T02:05:52;13.15;;;7.30;;
79064;SDS011;68469;51.502;7.462;2023-06-22T02:08:37;8.27;;;6.18;;
79064;SDS011;68469;51.502;7.462;2023-06-22T02:11:06;9.90;;;7.35;;
79064;SDS011;68469;51.502;7.462;2023-06-22T02:13:34;10.73;;;7.57;;
79064;SDS011;68469;51.502;7.462;2023-06-22T02:16:01;8.00;;;6.80;;
79064;SDS011;68469;51.502;7.462;2023-06-22T02:18:27;12.40;;;8.45;;
79064;SDS011;68469;51.502;7.462;2023-06-22T02:20:53;13.13;;;9.13;;
79064;SDS011;68469;51.502;7.462;2023-06-22T02:23:18;12.10;;;8.00;;
79064;SDS011;68469;51.502;7.462;2023-06-22T02:25:44;11.60;;;7.82;;
79064;SDS011;68469;51.502;7.462;2023-06-22T02:28:10;11.63;;;8.85;;
79064;SDS011;68469;51.502;7.462;2023-06-22T02:30:35;12.05;;;8.73;;
79064;SDS011;68469;51.502;7.462;2023-06-22T02:33:01;13.48;;;8.68;;
79064;SDS011;68469;51.502;7.462;2023-06-22T02:35:27;12.18;;;8.30;;
79064;SDS011;68469;51.502;7.462;2023-06-22T02:37:57;16.27;;;9.23;;
79064;SDS011;68469;51.502;7.462;2023-06-22T02:40:25;20.58;;;11.85;;
79064;SDS011;68469;51.502;7.462;2023-06-22T02:42:50;22.90;;;13.05;;
79064;SDS011;68469;51.502;7.462;2023-06-22T02:45:16;22.98;;;14.05;;
79064;SDS011;68469;51.502;7.462;2023-06-22T02:47:41;21.30;;;15.10;;
79064;SDS011;68469;51.502;7.462;2023-06-22T02:50:07;24.05;;;16.25;;
79064;SDS011;68469;51.502;7.462;2023-06-22T02:52:33;21.48;;;15.82;;
79064;SDS011;68469;51.502;7.462;2023-06-22T02:54:59;16.23;;;13.27;;
79064;SDS011;68469;51.502;7.462;2023-06-22T02:57:24;21.33;;;15.15;;
79064;SDS011;68469;51.502;7.462;2023-06-22T02:59:50;15.13;;;12.05;;
79064;SDS011;68469;51.502;7.462;2023-06-22T03:02:15;14.07;;;12.48;;
79064;SDS011;68469;51.502;7.462;2023-06-22T03:04:41;17.67;;;12.93;;
79064;SDS011;68469;51.502;7.462;2023-06-22T03:07:08;17.45;;;13.85;;
79064;SDS011;68469;51.502;7.462;2023-06-22T03:09:33;16.42;;;12.60;;
79064;SDS011;68469;51.502;7.462;2023-06-22T03:11:59;15.50;;;12.55;;
79064;SDS011;68469;51.502;7.462;2023-06-22T03:14:24;23.77;;;14.30;;
79064;SDS011;68469;51.502;7.462;2023-06-22T03:16:50;14.55;;;12.68;;
79064;SDS011;68469;51.502;7.462;2023-06-22T03:19:15;17.25;;;14.02;;
79064;SDS011;68469;51.502;7.462;2023-06-22T03:21:41;15.80;;;13.73;;
79064;SDS011;68469;51.502;7.462;2023-06-22T03:24:07;21.25;;;14.02;;
79064;SDS011;68469;51.502;7.462;2023-06-22T03:26:33;16.98;;;13.10;;
79064;SDS011;68469;51.502;7.462;2023-06-22T03:28:59;15.07;;;12.30;;
79064;SDS011;68469;51.502;7.462;2023-06-22T03:31:25;14.52;;;13.00;;
79064;SDS011;68469;51.502;7.462;2023-06-22T03:33:50;14.38;;;11.82;;
79064;SDS011;68469;51.502;7.462;2023-06-22T03:36:16;17.90;;;13.77;;
79064;SDS011;68469;51.502;7.462;2023-06-22T03:38:46;14.85;;;12.40;;
79064;SDS011;68469;51.502;7.462;2023-06-22T03:41:12;12.50;;;11.13;;
79064;SDS011;68469;51.502;7.462;2023-06-22T03:43:38;10.82;;;9.70;;
79064;SDS011;68469;51.502;7.462;2023-06-22T03:46:03;12.55;;;9.73;;
79064;SDS011;68469;51.502;7.462;2023-06-22T03:48:29;13.90;;;9.65;;
79064;SDS011;68469;51.502;7.462;2023-06-22T03:50:55;11.15;;;8.77;;
79064;SDS011;68469;51.502;7.462;2023-06-22T03:53:20;12.20;;;9.23;;
79064;SDS011;68469;51.502;7.462;2023-06-22T03:55:49;11.45;;;8.80;;
79064;SDS011;68469;51.502;7.462;2023-06-22T03:58:16;11.73;;;9.70;;
79064;SDS011;68469;51.502;7.462;2023-06-22T04:00:44;11.88;;;9.02;;
79064;SDS011;68469;51.502;7.462;2023-06-22T04:03:11;11.70;;;9.45;;
79064;SDS011;68469;51.502;7.462;2023-06-22T04:05:37;14.48;;;8.55;;
79064;SDS011;68469;51.502;7.462;2023-06-22T04:08:04;9.80;;;8.80;;
79064;SDS011;68469;51.502;7.462;2023-06-22T04:10:30;11.05;;;9.20;;
79064;SDS011;68469;51.502;7.462;2023-06-22T04:12:55;12.90;;;10.00;;
79064;SDS011;68469;51.502;7.462;2023-06-22T04:15:21;11.70;;;9.88;;
79064;SDS011;68469;51.502;7.462;2023-06-22T04:17:47;14.80;;;10.48;;
79064;SDS011;68469;51.502;7.462;2023-06-22T04:20:12;14.18;;;9.77;;
79064;SDS011;68469;51.502;7.462;2023-06-22T04:22:38;12.38;;;9.68;;
79064;SDS011;68469;51.502;7.462;2023-06-22T04:25:05;12.43;;;10.30;;
79064;SDS011;68469;51.502;7.462;2023-06-22T04:27:34;14.98;;;11.07;;
79064;SDS011;68469;51.502;7.462;2023-06-22T04:30:05;12.77;;;10.85;;
79064;SDS011;68469;51.502;7.462;2023-06-22T04:32:32;14.55;;;11.05;;
79064;SDS011;68469;51.502;7.462;2023-06-22T04:35:04;12.10;;;9.60;;
79064;SDS011;68469;51.502;7.462;2023-06-22T04:37:31;11.68;;;10.23;;
79064;SDS011;68469;51.502;7.462;2023-06-22T04:39:57;14.93;;;11.13;;
79064;SDS011;68469;51.502;7.462;2023-06-22T04:42:22;11.98;;;10.77;;
79064;SDS011;68469;51.502;7.462;2023-06-22T04:44:50;14.25;;;10.70;;
79064;SDS011;68469;51.502;7.462;2023-06-22T04:47:16;11.45;;;10.32;;
79064;SDS011;68469;51.502;7.462;2023-06-22T04:49:42;13.23;;;10.82;;
79064;SDS011;68469;51.502;7.462;2023-06-22T04:52:09;13.15;;;11.73;;
79064;SDS011;68469;51.502;7.462;2023-06-22T04:54:36;15.38;;;11.10;;
79064;SDS011;68469;51.502;7.462;2023-06-22T04:57:04;15.68;;;11.57;;
79064;SDS011;68469;51.502;7.462;2023-06-22T04:59:35;13.48;;;11.10;;
79064;SDS011;68469;51.502;7.462;2023-06-22T05:02:01;14.57;;;11.05;;
79064;SDS011;68469;51.502;7.462;2023-06-22T05:04:28;14.07;;;10.90;;
79064;SDS011;68469;51.502;7.462;2023-06-22T05:07:01;12.35;;;11.05;;
79064;SDS011;68469;51.502;7.462;2023-06-22T05:09:27;14.07;;;10.85;;
79064;SDS011;68469;51.502;7.462;2023-06-22T05:11:54;12.70;;;11.23;;
79064;SDS011;68469;51.502;7.462;2023-06-22T05:14:21;12.52;;;10.77;;
79064;SDS011;68469;51.502;7.462;2023-06-22T05:16:47;11.45;;;9.63;;
79064;SDS011;68469;51.502;7.462;2023-06-22T05:19:13;14.25;;;10.25;;
79064;SDS011;68469;51.502;7.462;2023-06-22T05:21:39;11.07;;;9.95;;
79064;SDS011;68469;51.502;7.462;2023-06-22T05:24:04;14.35;;;11.10;;
79064;SDS011;68469;51.502;7.462;2023-06-22T05:26:31;13.45;;;10.73;;
79064;SDS011;68469;51.502;7.462;2023-06-22T05:28:58;13.48;;;11.32;;
79064;SDS011;68469;51.502;7.462;2023-06-22T05:31:25;14.30;;;10.15;;
79064;SDS011;68469;51.502;7.462;2023-06-22T05:33:52;13.15;;;10.90;;
79064;SDS011;68469;51.502;7.462;2023-06-22T05:36:18;16.00;;;10.88;;
79064;SDS011;68469;51.502;7.462;2023-06-22T05:38:50;14.57;;;9.70;;
79064;SDS011;68469;51.502;7.462;2023-06-22T05:41:16;11.55;;;9.55;;
79064;SDS011;68469;51.502;7.462;2023-06-22T05:43:42;14.75;;;10.50;;
79064;SDS011;68469;51.502;7.462;2023-06-22T05:46:08;12.98;;;8.80;;
79064;SDS011;68469;51.502;7.462;2023-06-22T05:48:33;12.25;;;9.05;;
79064;SDS011;68469;51.502;7.462;2023-06-22T05:50:59;13.23;;;9.80;;
79064;SDS011;68469;51.502;7.462;2023-06-22T05:53:25;12.43;;;10.27;;
79064;SDS011;68469;51.502;7.462;2023-06-22T05:55:50;12.68;;;10.10;;
79064;SDS011;68469;51.502;7.462;2023-06-22T05:58:16;11.07;;;9.35;;
79064;SDS011;68469;51.502;7.462;2023-06-22T06:00:42;13.27;;;9.48;;
79064;SDS011;68469;51.502;7.462;2023-06-22T06:03:08;19.23;;;9.77;;
79064;SDS011;68469;51.502;7.462;2023-06-22T06:05:35;12.27;;;9.80;;
79064;SDS011;68469;51.502;7.462;2023-06-22T06:08:01;10.27;;;9.23;;
79064;SDS011;68469;51.502;7.462;2023-06-22T06:10:30;13.65;;;10.35;;
79064;SDS011;68469;51.502;7.462;2023-06-22T06:12:56;15.00;;;11.07;;
79064;SDS011;68469;51.502;7.462;2023-06-22T06:15:21;14.90;;;11.60;;
79064;SDS011;68469;51.502;7.462;2023-06-22T06:17:48;13.15;;;10.77;;
79064;SDS011;68469;51.502;7.462;2023-06-22T06:20:15;12.88;;;10.18;;
79064;SDS011;68469;51.502;7.462;2023-06-22T06:22:41;12.45;;;10.63;;
79064;SDS011;68469;51.502;7.462;2023-06-22T06:25:07;15.25;;;11.32;;
79064;SDS011;68469;51.502;7.462;2023-06-22T06:27:33;15.15;;;11.60;;
79064;SDS011;68469;51.502;7.462;2023-06-22T06:29:59;15.63;;;10.55;;
79064;SDS011;68469;51.502;7.462;2023-06-22T06:32:25;17.40;;;11.30;;
79064;SDS011;68469;51.502;7.462;2023-06-22T06:34:50;14.02;;;10.90;;
79064;SDS011;68469;51.502;7.462;2023-06-22T06:37:16;14.20;;;11.52;;
79064;SDS011;68469;51.502;7.462;2023-06-22T06:39:43;14.45;;;11.85;;
79064;SDS011;68469;51.502;7.462;2023-06-22T06:42:09;17.15;;;11.63;;
79064;SDS011;68469;51.502;7.462;2023-06-22T06:44:36;15.75;;;11.73;;
79064;SDS011;68469;51.502;7.462;2023-06-22T06:47:02;16.38;;;11.80;;
79064;SDS011;68469;51.502;7.462;2023-06-22T06:49:28;17.00;;;12.23;;
79064;SDS011;68469;51.502;7.462;2023-06-22T06:51:54;11.55;;;10.38;;
79064;SDS011;68469;51.502;7.462;2023-06-22T06:54:20;16.33;;;10.82;;
79064;SDS011;68469;51.502;7.462;2023-06-22T06:56:46;13.10;;;10.85;;
79064;SDS011;68469;51.502;7.462;2023-06-22T06:59:13;16.27;;;11.50;;
79064;SDS011;68469;51.502;7.462;2023-06-22T07:01:40;14.25;;;11.32;;
79064;SDS011;68469;51.502;7.462;2023-06-22T07:04:06;13.65;;;10.50;;
79064;SDS011;68469;51.502;7.462;2023-06-22T07:06:32;22.35;;;10.98;;
79064;SDS011;68469;51.502;7.462;2023-06-22T07:08:58;17.90;;;12.35;;
79064;SDS011;68469;51.502;7.462;2023-06-22T07:11:24;17.33;;;12.13;;
79064;SDS011;68469;51.502;7.462;2023-06-22T07:13:50;14.30;;;10.80;;
79064;SDS011;68469;51.502;7.462;2023-06-22T07:16:16;16.10;;;10.88;;
79064;SDS011;68469;51.502;7.462;2023-06-22T07:18:41;13.65;;;10.98;;
79064;SDS011;68469;51.502;7.462;2023-06-22T07:21:07;17.70;;;10.82;;
79064;SDS011;68469;51.502;7.462;2023-06-22T07:23:32;16.30;;;13.25;;
79064;SDS011;68469;51.502;7.462;2023-06-22T07:25:58;14.63;;;12.23;;
79064;SDS011;68469;51.502;7.462;2023-06-22T07:28:26;14.35;;;11.85;;
79064;SDS011;68469;51.502;7.462;2023-06-22T07:30:53;16.40;;;13.45;;
79064;SDS011;68469;51.502;7.462;2023-06-22T07:33:18;18.60;;;13.50;;
79064;SDS011;68469;51.502;7.462;2023-06-22T07:35:44;13.50;;;12.13;;
79064;SDS011;68469;51.502;7.462;2023-06-22T07:38:12;13.60;;;12.00;;
79064;SDS011;68469;51.502;7.462;2023-06-22T07:40:38;17.15;;;14.13;;
79064;SDS011;68469;51.502;7.462;2023-06-22T07:43:03;15.07;;;13.50;;
79064;SDS011;68469;51.502;7.462;2023-06-22T07:45:29;15.77;;;11.80;;
79064;SDS011;68469;51.502;7.462;2023-06-22T07:47:55;13.05;;;11.52;;
79064;SDS011;68469;51.502;7.462;2023-06-22T07:50:20;14.02;;;11.45;;
79064;SDS011;68469;51.502;7.462;2023-06-22T07:52:46;20.58;;;12.55;;
79064;SDS011;68469;51.502;7.462;2023-06-22T07:55:13;18.55;;;12.32;;
79064;SDS011;68469;51.502;7.462;2023-06-22T07:57:38;12.65;;;10.95;;
79064;SDS011;68469;51.502;7.462;2023-06-22T08:00:05;11.90;;;10.63;;
79064;SDS011;68469;51.502;7.462;2023-06-22T08:02:42;21.92;;;11.75;;
79064;SDS011;68469;51.502;7.462;2023-06-22T08:05:09;15.13;;;12.52;;
79064;SDS011;68469;51.502;7.462;2023-06-22T08:07:36;18.10;;;12.93;;
79064;SDS011;68469;51.502;7.462;2023-06-22T08:10:03;14.60;;;12.35;;
79064;SDS011;68469;51.502;7.462;2023-06-22T08:12:29;15.65;;;11.32;;
79064;SDS011;68469;51.502;7.462;2023-06-22T08:14:55;15.05;;;13.38;;
79064;SDS011;68469;51.502;7.462;2023-06-22T08:17:21;14.75;;;12.30;;
79064;SDS011;68469;51.502;7.462;2023-06-22T08:19:48;15.82;;;13.23;;
79064;SDS011;68469;51.502;7.462;2023-06-22T08:22:13;14.95;;;12.48;;
79064;SDS011;68469;51.502;7.462;2023-06-22T08:24:40;14.13;;;10.80;;
79064;SDS011;68469;51.502;7.462;2023-06-22T08:27:09;20.30;;;14.02;;
79064;SDS011;68469;51.502;7.462;2023-06-22T08:29:37;16.27;;;11.77;;
79064;SDS011;68469;51.502;7.462;2023-06-22T08:32:02;13.85;;;12.43;;
79064;SDS011;68469;51.502;7.462;2023-06-22T08:34:28;17.00;;;12.45;;
79064;SDS011;68469;51.502;7.462;2023-06-22T08:36:54;15.48;;;11.95;;
79064;SDS011;68469;51.502;7.462;2023-06-22T08:39:20;14.43;;;12.98;;
79064;SDS011;68469;51.502;7.462;2023-06-22T08:41:46;20.35;;;12.45;;
79064;SDS011;68469;51.502;7.462;2023-06-22T08:44:12;18.25;;;11.35;;
79064;SDS011;68469;51.502;7.462;2023-06-22T08:46:38;16.00;;;13.18;;
79064;SDS011;68469;51.502;7.462;2023-06-22T08:49:05;17.00;;;13.30;;
79064;SDS011;68469;51.502;7.462;2023-06-22T08:51:31;17.35;;;11.52;;
79064;SDS011;68469;51.502;7.462;2023-06-22T08:53:57;18.67;;;12.32;;
79064;SDS011;68469;51.502;7.462;2023-06-22T08:56:23;11.63;;;10.43;;
79064;SDS011;68469;51.502;7.462;2023-06-22T08:58:49;13.25;;;11.57;;
79064;SDS011;68469;51.502;7.462;2023-06-22T09:01:14;14.60;;;10.95;;
79064;SDS011;68469;51.502;7.462;2023-06-22T09:03:42;15.10;;;11.35;;
79064;SDS011;68469;51.502;7.462;2023-06-22T09:06:08;12.18;;;10.07;;
79064;SDS011;68469;51.502;7.462;2023-06-22T09:08:34;11.57;;;10.02;;
79064;SDS011;68469;51.502;7.462;2023-06-22T09:11:00;10.73;;;9.60;;
79064;SDS011;68469;51.502;7.462;2023-06-22T09:13:27;10.82;;;9.43;;
79064;SDS011;68469;51.502;7.462;2023-06-22T09:15:54;12.10;;;10.77;;
79064;SDS011;68469;51.502;7.462;2023-06-22T09:18:19;14.13;;;10.25;;
79064;SDS011;68469;51.502;7.462;2023-06-22T09:20:45;10.38;;;9.32;;
79064;SDS011;68469;51.502;7.462;2023-06-22T09:23:11;12.90;;;9.77;;
79064;SDS011;68469;51.502;7.462;2023-06-22T09:25:36;9.93;;;8.30;;
79064;SDS011;68469;51.502;7.462;2023-06-22T09:28:02;14.95;;;9.70;;
79064;SDS011;68469;51.502;7.462;2023-06-22T09:30:28;13.45;;;9.13;;
79064;SDS011;68469;51.502;7.462;2023-06-22T09:32:53;9.68;;;7.90;;
79064;SDS011;68469;51.502;7.462;2023-06-22T09:35:19;13.70;;;8.32;;
79064;SDS011;68469;51.502;7.462;2023-06-22T09:37:45;11.10;;;9.25;;
79064;SDS011;68469;51.502;7.462;2023-06-22T09:40:11;12.32;;;9.45;;
79064;SDS011;68469;51.502;7.462;2023-06-22T09:42:38;8.75;;;7.68;;
79064;SDS011;68469;51.502;7.462;2023-06-22T09:45:04;10.82;;;8.52;;
79064;SDS011;68469;51.502;7.462;2023-06-22T09:47:30;11.48;;;9.38;;
79064;SDS011;68469;51.502;7.462;2023-06-22T09:49:56;11.73;;;8.75;;
79064;SDS011;68469;51.502;7.462;2023-06-22T09:52:24;9.05;;;7.57;;
79064;SDS011;68469;51.502;7.462;2023-06-22T09:54:49;11.25;;;8.55;;
79064;SDS011;68469;51.502;7.462;2023-06-22T09:57:15;12.00;;;8.57;;
79064;SDS011;68469;51.502;7.462;2023-06-22T09:59:41;16.45;;;10.10;;
79064;SDS011;68469;51.502;7.462;2023-06-22T10:02:07;12.20;;;7.95;;
79064;SDS011;68469;51.502;7.462;2023-06-22T10:04:36;9.05;;;7.93;;
79064;SDS011;68469;51.502;7.462;2023-06-22T10:07:02;10.30;;;8.15;;
79064;SDS011;68469;51.502;7.462;2023-06-22T10:09:27;8.75;;;7.85;;
79064;SDS011;68469;51.502;7.462;2023-06-22T10:11:53;9.25;;;7.18;;
79064;SDS011;68469;51.502;7.462;2023-06-22T10:14:19;8.32;;;7.45;;
79064;SDS011;68469;51.502;7.462;2023-06-22T10:16:44;8.93;;;7.88;;
79064;SDS011;68469;51.502;7.462;2023-06-22T10:19:10;8.77;;;7.47;;
79064;SDS011;68469;51.502;7.462;2023-06-22T10:21:36;10.82;;;6.90;;
79064;SDS011;68469;51.502;7.462;2023-06-22T10:24:01;6.95;;;6.25;;
79064;SDS011;68469;51.502;7.462;2023-06-22T10:26:33;8.23;;;6.40;;
79064;SDS011;68469;51.502;7.462;2023-06-22T10:29:00;10.45;;;8.63;;
79064;SDS011;68469;51.502;7.462;2023-06-22T10:31:27;9.88;;;7.90;;
79064;SDS011;68469;51.502;7.462;2023-06-22T10:33:53;9.32;;;8.32;;
79064;SDS011;68469;51.502;7.462;2023-06-22T10:36:19;10.18;;;8.23;;
79064;SDS011;68469;51.502;7.462;2023-06-22T10:38:45;11.45;;;8.13;;
79064;SDS011;68469;51.502;7.462;2023-06-22T10:41:12;8.77;;;7.88;;
79064;SDS011;68469;51.502;7.462;2023-06-22T10:43:38;10.60;;;8.50;;
79064;SDS011;68469;51.502;7.462;2023-06-22T10:46:03;10.23;;;8.23;;
79064;SDS011;68469;51.502;7.462;2023-06-22T10:48:29;9.55;;;6.72;;
79064;SDS011;68469;51.502;7.462;2023-06-22T10:50:54;9.15;;;6.88;;
79064;SDS011;68469;51.502;7.462;2023-06-22T10:53:20;9.05;;;7.22;;
79064;SDS011;68469;51.502;7.462;2023-06-22T10:55:46;8.52;;;7.47;;
79064;SDS011;68469;51.502;7.462;2023-06-22T10:58:12;9.20;;;7.40;;
79064;SDS011;68469;51.502;7.462;2023-06-22T11:00:38;8.18;;;6.60;;
79064;SDS011;68469;51.502;7.462;2023-06-22T11:03:03;10.88;;;6.45;;
79064;SDS011;68469;51.502;7.462;2023-06-22T11:05:29;10.02;;;7.38;;
79064;SDS011;68469;51.502;7.462;2023-06-22T11:07:54;9.80;;;6.53;;
79064;SDS011;68469;51.502;7.462;2023-06-22T11:10:20;9.32;;;6.75;;
79064;SDS011;68469;51.502;7.462;2023-06-22T11:12:46;7.80;;;6.38;;
79064;SDS011;68469;51.502;7.462;2023-06-22T11:15:11;7.18;;;5.95;;
79064;SDS011;68469;51.502;7.462;2023-06-22T11:17:37;6.95;;;5.78;;
79064;SDS011;68469;51.502;7.462;2023-06-22T11:20:03;7.43;;;5.75;;
79064;SDS011;68469;51.502;7.462;2023-06-22T11:22:36;7.03;;;6.32;;
79064;SDS011;68469;51.502;7.462;2023-06-22T11:25:05;11.27;;;7.43;;
79064;SDS011;68469;51.502;7.462;2023-06-22T11:27:31;8.30;;;6.93;;
79064;SDS011;68469;51.502;7.462;2023-06-22T11:29:56;9.32;;;6.97;;
79064;SDS011;68469;51.502;7.462;2023-06-22T11:32:22;9.65;;;7.43;;
79064;SDS011;68469;51.502;7.462;2023-06-22T11:34:48;9.80;;;7.65;;
79064;SDS011;68469;51.502;7.462;2023-06-22T11:37:14;9.80;;;8.38;;
79064;SDS011;68469;51.502;7.462;2023-06-22T11:39:40;10.23;;;8.90;;
79064;SDS011;68469;51.502;7.462;2023-06-22T11:42:06;10.43;;;8.63;;
79064;SDS011;68469;51.502;7.462;2023-06-22T11:44:33;9.75;;;8.10;;
79064;SDS011;68469;51.502;7.462;2023-06-22T11:46:58;10.98;;;9.77;;
79064;SDS011;68469;51.502;7.462;2023-06-22T11:49:25;12.35;;;9.82;;
79064;SDS011;68469;51.502;7.462;2023-06-22T11:51:51;11.60;;;10.05;;
79064;SDS011;68469;51.502;7.462;2023-06-22T11:54:17;14.18;;;11.05;;
79064;SDS011;68469;51.502;7.462;2023-06-22T11:56:43;14.77;;;11.20;;
79064;SDS011;68469;51.502;7.462;2023-06-22T11:59:08;12.63;;;10.63;;
79064;SDS011;68469;51.502;7.462;2023-06-22T12:01:34;13.48;;;11.45;;
79064;SDS011;68469;51.502;7.462;2023-06-22T12:03:59;20.23;;;13.85;;
79064;SDS011;68469;51.502;7.462;2023-06-22T12:06:25;14.85;;;13.25;;
79064;SDS011;68469;51.502;7.462;2023-06-22T12:08:51;16.15;;;14.13;;
79064;SDS011;68469;51.502;7.462;2023-06-22T12:11:16;17.20;;;14.60;;
79064;SDS011;68469;51.502;7.462;2023-06-22T12:13:42;17.75;;;15.85;;
79064;SDS011;68469;51.502;7.462;2023-06-22T12:16:08;16.83;;;15.13;;
79064;SDS011;68469;51.502;7.462;2023-06-22T12:18:33;18.00;;;14.82;;
79064;SDS011;68469;51.502;7.462;2023-06-22T12:20:59;18.55;;;16.05;;
79064;SDS011;68469;51.502;7.462;2023-06-22T12:23:24;17.08;;;15.30;;
79064;SDS011;68469;51.502;7.462;2023-06-22T12:25:50;16.80;;;15.00;;
79064;SDS011;68469;51.502;7.462;2023-06-22T12:28:16;18.85;;;16.98;;
79064;SDS011;68469;51.502;7.462;2023-06-22T12:30:42;17.70;;;15.50;;
79064;SDS011;68469;51.502;7.462;2023-06-22T12:33:07;21.63;;;16.20;;
79064;SDS011;68469;51.502;7.462;2023-06-22T12:35:33;17.98;;;15.93;;
79064;SDS011;68469;51.502;7.462;2023-06-22T12:37:59;20.30;;;16.05;;
79064;SDS011;68469;51.502;7.462;2023-06-22T12:40:25;18.05;;;15.25;;
79064;SDS011;68469;51.502;7.462;2023-06-22T12:42:50;19.70;;;16.02;;
79064;SDS011;68469;51.502;7.462;2023-06-22T12:45:16;20.42;;;16.50;;
79064;SDS011;68469;51.502;7.462;2023-06-22T12:47:42;20.85;;;17.38;;
79064;SDS011;68469;51.502;7.462;2023-06-22T12:50:08;18.98;;;17.00;;
79064;SDS011;68469;51.502;7.462;2023-06-22T12:52:35;20.40;;;18.13;;
79064;SDS011;68469;51.502;7.462;2023-06-22T12:55:03;22.30;;;18.52;;
79064;SDS011;68469;51.502;7.462;2023-06-22T12:57:29;22.25;;;19.30;;
79064;SDS011;68469;51.502;7.462;2023-06-22T12:59:55;22.17;;;18.95;;
79064;SDS011;68469;51.502;7.462;2023-06-22T13:02:20;24.75;;;19.42;;
79064;SDS011;68469;51.502;7.462;2023-06-22T13:04:46;24.63;;;21.38;;
79064;SDS011;68469;51.502;7.462;2023-06-22T13:07:12;26.25;;;23.33;;
79064;SDS011;68469;51.502;7.462;2023-06-22T13:09:37;27.65;;;20.95;;
79064;SDS011;68469;51.502;7.462;2023-06-22T13:12:03;22.98;;;19.75;;
79064;SDS011;68469;51.502;7.462;2023-06-22T13:14:29;20.42;;;17.92;;
79064;SDS011;68469;51.502;7.462;2023-06-22T13:16:55;18.42;;;16.50;;
79064;SDS011;68469;51.502;7.462;2023-06-22T13:19:20;19.02;;;15.95;;
79064;SDS011;68469;51.502;7.462;2023-06-22T13:21:46;17.17;;;15.38;;
79064;SDS011;68469;51.502;7.462;2023-06-22T13:24:11;17.77;;;16.02;;
79064;SDS011;68469;51.502;7.462;2023-06-22T13:26:37;17.55;;;15.75;;
79064;SDS011;68469;51.502;7.462;2023-06-22T13:29:03;17.85;;;14.70;;
79064;SDS011;68469;51.502;7.462;2023-06-22T13:31:29;17.60;;;14.40;;
79064;SDS011;68469;51.502;7.462;2023-06-22T13:33:54;16.55;;;14.85;;
79064;SDS011;68469;51.502;7.462;2023-06-22T13:36:20;16.08;;;14.38;;
79064;SDS011;68469;51.502;7.462;2023-06-22T13:38:46;16.65;;;14.90;;
79064;SDS011;68469;51.502;7.462;2023-06-22T13:41:12;16.23;;;14.63;;
79064;SDS011;68469;51.502;7.462;2023-06-22T13:43:37;17.25;;;15.32;;
79064;SDS011;68469;51.502;7.462;2023-06-22T13:46:03;15.20;;;13.70;;
79064;SDS011;68469;51.502;7.462;2023-06-22T13:48:29;16.08;;;14.55;;
79064;SDS011;68469;51.502;7.462;2023-06-22T13:50:54;16.08;;;12.93;;
79064;SDS011;68469;51.502;7.462;2023-06-22T13:53:20;15.73;;;13.75;;
79064;SDS011;68469;51.502;7.462;2023-06-22T13:55:46;15.57;;;13.95;;
79064;SDS011;68469;51.502;7.462;2023-06-22T13:58:12;13.07;;;11.80;;
79064;SDS011;68469;51.502;7.462;2023-06-22T14:00:38;13.60;;;12.23;;
79064;SDS011;68469;51.502;7.462;2023-06-22T14:03:03;14.18;;;12.68;;
79064;SDS011;68469;51.502;7.462;2023-06-22T14:05:29;13.45;;;12.10;;
79064;SDS011;68469;51.502;7.462;2023-06-22T14:07:55;15.77;;;13.20;;
79064;SDS011;68469;51.502;7.462;2023-06-22T14:10:20;14.40;;;12.95;;
79064;SDS011;68469;51.502;7.462;2023-06-22T14:12:46;12.60;;;11.40;;
79064;SDS011;68469;51.502;7.462;2023-06-22T14:15:11;13.32;;;11.98;;
79064;SDS011;68469;51.502;7.462;2023-06-22T14:17:37;13.27;;;11.70;;
79064;SDS011;68469;51.502;7.462;2023-06-22T14:20:02;13.43;;;12.13;;
79064;SDS011;68469;51.502;7.462;2023-06-22T14:22:30;13.70;;;12.35;;
79064;SDS011;68469;51.502;7.462;2023-06-22T14:24:56;14.15;;;12.75;;
79064;SDS011;68469;51.502;7.462;2023-06-22T14:27:22;14.00;;;12.07;;
79064;SDS011;68469;51.502;7.462;2023-06-22T14:29:48;14.80;;;12.57;;
79064;SDS011;68469;51.502;7.462;2023-06-22T14:32:14;13.30;;;11.90;;
79064;SDS011;68469;51.502;7.462;2023-06-22T14:34:39;14.50;;;12.45;;